createdAt,value
2018-06-05T00:01:29.643Z,41.23
2018-06-05T00:03:58.828Z,41.33
2018-06-05T00:06:27.982Z,41.77
2018-06-05T00:08:57.170Z,44.77
2018-06-05T00:11:26.305Z,41.57
2018-06-05T00:13:55.533Z,40.80
2018-06-05T00:16:24.709Z,43.33
2018-06-05T00:18:53.882Z,49.47
2018-06-05T00:21:23.094Z,42.30
2018-06-05T00:23:52.231Z,41.53
2018-06-05T00:26:21.672Z,45.77
2018-06-05T00:28:50.939Z,41.40
2018-06-05T00:31:20.153Z,43.83
2018-06-05T00:33:49.298Z,42.67
2018-06-05T00:36:18.489Z,47.50
2018-06-05T00:38:47.717Z,46.33
2018-06-05T00:41:16.867Z,44.47
2018-06-05T00:43:46.026Z,43.33
2018-06-05T00:46:15.224Z,44.30
2018-06-05T00:48:44.472Z,42.57
2018-06-05T00:51:30.710Z,44.00
2018-06-05T00:53:59.952Z,46.30
2018-06-05T00:56:29.128Z,45.13
2018-06-05T00:58:58.399Z,41.67
2018-06-05T01:01:27.625Z,42.90
2018-06-05T01:03:56.840Z,43.23
2018-06-05T01:06:26.047Z,48.87
2018-06-05T01:08:55.240Z,43.13
2018-06-05T01:11:24.439Z,46.70
2018-06-05T01:13:53.642Z,46.10
2018-06-05T01:16:22.862Z,42.73
2018-06-05T01:18:52.032Z,56.87
2018-06-05T01:21:21.269Z,43.00
2018-06-05T01:23:50.479Z,48.70
2018-06-05T01:26:19.687Z,40.50
2018-06-05T01:28:48.853Z,42.50
2018-06-05T01:31:18.065Z,40.93
2018-06-05T01:33:47.243Z,46.47
2018-06-05T01:36:16.444Z,44.17
2018-06-05T01:38:45.645Z,38.33
2018-06-05T01:41:14.826Z,40.00
2018-06-05T01:43:44.055Z,41.70
2018-06-05T01:46:13.270Z,38.10
2018-06-05T01:48:42.502Z,37.40
2018-06-05T01:51:11.719Z,41.80
2018-06-05T01:53:41.025Z,38.53
2018-06-05T01:56:10.244Z,35.90
2018-06-05T01:58:39.415Z,40.27
2018-06-05T02:01:08.586Z,45.57
2018-06-05T02:03:37.974Z,41.27
2018-06-05T02:06:07.175Z,42.00
2018-06-05T02:08:36.397Z,43.13
2018-06-05T02:11:05.643Z,39.57
2018-06-05T02:13:34.795Z,42.63
2018-06-05T02:16:04.060Z,37.47
2018-06-05T02:18:33.213Z,45.80
2018-06-05T02:21:02.480Z,40.20
2018-06-05T02:23:31.711Z,45.47
2018-06-05T02:26:00.901Z,41.90
2018-06-05T02:28:30.122Z,39.90
2018-06-05T02:30:59.377Z,47.60
2018-06-05T02:33:28.520Z,44.50
2018-06-05T02:35:57.735Z,45.57
2018-06-05T02:38:26.912Z,44.60
2018-06-05T02:40:56.158Z,46.57
2018-06-05T02:43:25.356Z,44.87
2018-06-05T02:45:54.561Z,46.40
2018-06-05T02:48:24.174Z,43.60
2018-06-05T02:50:53.398Z,48.83
2018-06-05T02:53:22.599Z,43.80
2018-06-05T02:55:51.795Z,43.60
2018-06-05T02:58:21.074Z,42.33
2018-06-05T03:00:50.257Z,40.30
2018-06-05T03:03:19.426Z,43.37
2018-06-05T03:05:48.634Z,41.93
2018-06-05T03:08:17.828Z,42.70
2018-06-05T03:10:46.969Z,40.93
2018-06-05T03:13:16.152Z,43.40
2018-06-05T03:15:45.381Z,46.33
2018-06-05T03:18:14.594Z,39.70
2018-06-05T03:20:43.905Z,43.20
2018-06-05T03:23:13.092Z,42.37
2018-06-05T03:25:42.334Z,37.43
2018-06-05T03:28:11.546Z,39.80
2018-06-05T03:30:40.769Z,41.60
2018-06-05T03:33:10.000Z,37.53
2018-06-05T03:35:39.298Z,43.80
2018-06-05T03:38:08.510Z,39.13
2018-06-05T03:40:37.740Z,37.57
2018-06-05T03:43:07.049Z,39.97
2018-06-05T03:45:36.303Z,33.90
2018-06-05T03:48:05.434Z,41.67
2018-06-05T03:50:34.612Z,39.67
2018-06-05T03:53:03.815Z,38.53
2018-06-05T03:55:32.982Z,39.33
2018-06-05T03:58:02.235Z,36.87
2018-06-05T04:00:31.483Z,35.60
2018-06-05T04:03:00.754Z,33.93
2018-06-05T04:05:29.995Z,37.83
2018-06-05T04:07:59.271Z,32.60
2018-06-05T04:10:28.482Z,35.33
2018-06-05T04:12:57.750Z,35.10
2018-06-05T04:15:26.967Z,34.53
2018-06-05T04:17:56.109Z,30.23
2018-06-05T04:20:25.311Z,30.67
2018-06-05T04:22:54.556Z,34.77
2018-06-05T04:25:24.430Z,31.30
2018-06-05T04:27:53.769Z,34.47
2018-06-05T04:30:22.998Z,34.80
2018-06-05T04:32:52.235Z,33.00
2018-06-05T04:35:21.401Z,30.00
2018-06-05T04:37:50.644Z,38.63
2018-06-05T04:40:19.793Z,27.50
2018-06-05T04:42:48.975Z,33.53
2018-06-05T04:45:18.302Z,33.70
2018-06-05T04:47:47.565Z,38.07
2018-06-05T04:50:16.661Z,45.03
2018-06-05T04:52:45.852Z,33.03
2018-06-05T04:55:15.081Z,32.37
2018-06-05T04:57:44.308Z,32.90
2018-06-05T05:00:13.423Z,36.70
2018-06-05T05:02:42.617Z,34.07
2018-06-05T05:05:11.882Z,38.23
2018-06-05T05:07:41.105Z,35.77
2018-06-05T05:10:10.333Z,30.43
2018-06-05T05:12:39.534Z,29.07
2018-06-05T05:15:08.766Z,33.43
2018-06-05T05:17:37.933Z,34.80
2018-06-05T05:20:07.489Z,33.20
2018-06-05T05:22:36.702Z,26.77
2018-06-05T05:25:05.968Z,28.53
2018-06-05T05:27:35.124Z,28.43
2018-06-05T05:30:04.426Z,31.10
2018-06-05T05:32:33.622Z,34.70
2018-06-05T05:35:02.795Z,38.83
2018-06-05T05:37:32.008Z,24.77
2018-06-05T05:40:01.196Z,35.20
2018-06-05T05:42:30.423Z,25.77
2018-06-05T05:44:59.648Z,29.83
2018-06-05T05:47:28.868Z,30.60
2018-06-05T05:49:58.029Z,27.40
2018-06-05T05:52:27.278Z,31.47
2018-06-05T05:54:56.482Z,34.30
2018-06-05T05:57:25.814Z,30.77
2018-06-05T05:59:54.980Z,28.57
2018-06-05T06:02:24.127Z,30.67
2018-06-05T06:04:53.270Z,32.13
2018-06-05T06:07:22.458Z,30.83
2018-06-05T06:09:51.901Z,28.20
2018-06-05T06:12:21.242Z,27.57
2018-06-05T06:14:50.531Z,27.03
2018-06-05T06:17:19.735Z,28.13
2018-06-05T06:19:48.923Z,28.53
2018-06-05T06:22:18.123Z,26.60
2018-06-05T06:24:47.354Z,27.30
2018-06-05T06:27:17.105Z,28.13
2018-06-05T06:29:46.297Z,29.70
2018-06-05T06:32:15.453Z,35.70
2018-06-05T06:34:44.693Z,32.03
2018-06-05T06:37:13.921Z,31.07
2018-06-05T06:39:43.140Z,30.53
2018-06-05T06:42:12.462Z,32.00
2018-06-05T06:44:41.629Z,30.80
2018-06-05T06:47:10.538Z,36.30
2018-06-05T06:49:39.765Z,27.43
2018-06-05T06:52:08.926Z,26.93
2018-06-05T06:54:38.141Z,36.30
2018-06-05T06:57:07.300Z,33.07
2018-06-05T06:59:36.524Z,29.73
2018-06-05T07:02:05.749Z,29.27
2018-06-05T07:04:35.033Z,33.90
2018-06-05T07:07:04.263Z,30.63
2018-06-05T07:09:33.419Z,37.30
2018-06-05T07:12:02.640Z,32.70
2018-06-05T07:14:31.813Z,27.13
2018-06-05T07:17:01.096Z,29.30
2018-06-05T07:19:30.314Z,28.80
2018-06-05T07:21:59.480Z,29.50
2018-06-05T07:24:28.688Z,28.03
2018-06-05T07:26:57.997Z,25.93
2018-06-05T07:29:27.187Z,26.40
2018-06-05T07:31:56.403Z,31.60
2018-06-05T07:34:25.549Z,36.17
2018-06-05T07:36:54.662Z,25.40
2018-06-05T07:39:23.832Z,33.10
2018-06-05T07:41:53.020Z,32.83
2018-06-05T07:44:22.320Z,26.87
2018-06-05T07:46:51.557Z,30.20
2018-06-05T07:49:20.681Z,26.70
2018-06-05T07:51:49.847Z,29.53
2018-06-05T07:54:19.121Z,32.57
2018-06-05T07:56:48.352Z,33.17
2018-06-05T07:59:17.671Z,36.30
2018-06-05T08:01:46.943Z,25.23
2018-06-05T08:04:16.191Z,31.97
2018-06-05T08:06:45.407Z,25.97
2018-06-05T08:09:14.597Z,28.87
2018-06-05T08:11:43.740Z,39.90
2018-06-05T08:14:12.945Z,31.40
2018-06-05T08:16:42.189Z,27.83
2018-06-05T08:19:11.312Z,35.57
2018-06-05T08:21:40.525Z,31.33
2018-06-05T08:24:09.727Z,29.30
2018-06-05T08:26:51.308Z,25.07
2018-06-05T08:29:21.312Z,25.00
2018-06-05T08:31:50.589Z,27.60
2018-06-05T08:34:19.878Z,24.93
2018-06-05T08:36:49.697Z,25.77
2018-06-05T08:39:19.100Z,38.47
2018-06-05T08:41:48.236Z,35.37
2018-06-05T08:44:18.379Z,28.93
2018-06-05T08:46:47.659Z,31.47
2018-06-05T08:49:16.961Z,31.80
2018-06-05T08:51:46.147Z,35.43
2018-06-05T08:54:15.353Z,32.03
2018-06-05T08:56:44.533Z,26.63
2018-06-05T08:59:13.747Z,30.43
2018-06-05T09:01:42.909Z,28.30
2018-06-05T09:04:12.157Z,29.97
2018-06-05T09:06:41.355Z,30.40
2018-06-05T09:09:10.650Z,28.07
2018-06-05T09:11:39.848Z,25.30
2018-06-05T09:14:09.020Z,25.73
2018-06-05T09:16:38.207Z,30.87
2018-06-05T09:19:07.363Z,25.43
2018-06-05T09:21:36.568Z,27.63
2018-06-05T09:24:05.721Z,29.33
2018-06-05T09:26:34.921Z,33.73
2018-06-05T09:29:04.129Z,26.63
2018-06-05T09:31:33.293Z,28.03
2018-06-05T09:34:02.473Z,25.27
2018-06-05T09:36:31.750Z,28.93
2018-06-05T09:39:00.962Z,27.10
2018-06-05T09:41:30.176Z,30.03
2018-06-05T09:43:59.457Z,26.30
2018-06-05T09:46:28.611Z,26.60
2018-06-05T09:48:57.823Z,28.83
2018-06-05T09:51:27.016Z,31.33
2018-06-05T09:53:56.262Z,30.27
2018-06-05T09:56:25.494Z,24.80
2018-06-05T09:58:54.761Z,33.13
2018-06-05T10:01:24.011Z,30.13
2018-06-05T10:03:53.241Z,31.73
2018-06-05T10:06:22.419Z,27.17
2018-06-05T10:08:51.632Z,31.07
2018-06-05T10:11:20.884Z,35.93
2018-06-05T10:13:50.091Z,23.70
2018-06-05T10:16:19.247Z,30.77
2018-06-05T10:18:49.823Z,29.47
2018-06-05T10:21:19.076Z,25.30
2018-06-05T10:23:48.227Z,25.30
2018-06-05T10:26:17.445Z,28.53
2018-06-05T10:28:46.643Z,27.97
2018-06-05T10:31:15.810Z,39.50
2018-06-05T10:33:44.938Z,31.70
2018-06-05T10:36:14.125Z,34.63
2018-06-05T10:38:43.303Z,34.37
2018-06-05T10:41:12.477Z,36.77
2018-06-05T10:43:41.701Z,34.70
2018-06-05T10:46:10.878Z,34.30
2018-06-05T10:48:40.077Z,35.57
2018-06-05T10:51:09.348Z,29.70
2018-06-05T10:53:38.583Z,28.77
2018-06-05T10:56:07.744Z,31.63
2018-06-05T10:58:36.950Z,34.80
2018-06-05T11:01:06.150Z,33.47
2018-06-05T11:03:35.389Z,28.60
2018-06-05T11:06:04.722Z,30.90
2018-06-05T11:08:33.893Z,28.60
2018-06-05T11:11:03.184Z,34.77
2018-06-05T11:13:32.372Z,29.40
2018-06-05T11:16:01.590Z,31.47
2018-06-05T11:18:30.801Z,31.57
2018-06-05T11:20:59.995Z,40.80
2018-06-05T11:23:29.214Z,28.37
2018-06-05T11:25:58.343Z,38.10
2018-06-05T11:28:27.477Z,32.27
2018-06-05T11:30:56.714Z,32.73
2018-06-05T11:33:25.905Z,34.83
2018-06-05T11:35:55.062Z,34.67
2018-06-05T11:38:24.240Z,28.87
2018-06-05T11:40:53.503Z,36.40
2018-06-05T11:43:22.684Z,30.67
2018-06-05T11:45:51.868Z,31.73
2018-06-05T11:48:21.054Z,25.97
2018-06-05T11:50:50.233Z,32.40
2018-06-05T11:53:19.418Z,31.93
2018-06-05T11:55:48.651Z,28.57
2018-06-05T11:58:17.870Z,24.60
2018-06-05T12:00:47.143Z,24.87
2018-06-05T12:03:16.284Z,22.93
2018-06-05T12:05:45.553Z,23.53
2018-06-05T12:08:14.709Z,17.90
2018-06-05T12:10:43.915Z,23.90
2018-06-05T12:13:13.111Z,23.17
2018-06-05T12:15:42.407Z,27.23
2018-06-05T12:18:11.625Z,25.70
2018-06-05T12:20:40.824Z,22.17
2018-06-05T12:23:10.013Z,25.60
2018-06-05T12:25:39.244Z,25.37
2018-06-05T12:28:08.418Z,25.83
2018-06-05T12:30:37.576Z,23.10
2018-06-05T12:33:09.367Z,20.97
2018-06-05T12:35:38.518Z,23.93
2018-06-05T12:38:07.665Z,20.00
2018-06-05T12:40:36.801Z,24.80
2018-06-05T12:43:06.024Z,25.30
2018-06-05T12:45:35.230Z,26.93
2018-06-05T12:48:04.509Z,20.93
2018-06-05T12:50:33.650Z,19.73
2018-06-05T12:53:02.988Z,24.37
2018-06-05T12:55:32.194Z,18.67
2018-06-05T12:58:03.835Z,20.83
2018-06-05T13:00:32.964Z,17.93
2018-06-05T13:03:02.142Z,14.80
2018-06-05T13:05:31.328Z,19.70
2018-06-05T13:08:00.591Z,15.80
2018-06-05T13:10:29.828Z,12.87
2018-06-05T13:12:59.072Z,19.87
2018-06-05T13:15:28.360Z,19.80
2018-06-05T13:17:57.456Z,19.90
2018-06-05T13:20:26.891Z,14.60
2018-06-05T13:22:56.363Z,14.90
2018-06-05T13:25:25.421Z,13.07
2018-06-05T13:27:54.649Z,14.63
2018-06-05T13:30:23.969Z,18.10
2018-06-05T13:32:53.414Z,10.60
2018-06-05T13:35:22.745Z,17.47
2018-06-05T13:37:52.074Z,13.80
2018-06-05T13:40:21.260Z,9.87
2018-06-05T13:42:50.481Z,15.93
2018-06-05T13:45:19.724Z,16.03
2018-06-05T13:47:49.022Z,13.00
2018-06-05T13:50:18.189Z,13.80
2018-06-05T13:52:47.366Z,11.50
2018-06-05T13:55:16.581Z,12.07
2018-06-05T13:57:45.729Z,13.30
2018-06-05T14:00:14.909Z,14.60
2018-06-05T14:02:44.108Z,16.53
2018-06-05T14:05:13.332Z,12.53
2018-06-05T14:07:42.531Z,15.10
2018-06-05T14:10:11.669Z,15.00
2018-06-05T14:12:40.870Z,18.43
2018-06-05T14:15:09.986Z,19.60
2018-06-05T14:17:39.112Z,12.87
2018-06-05T14:20:08.316Z,19.13
2018-06-05T14:22:37.460Z,12.50
2018-06-05T14:25:06.616Z,16.60
2018-06-05T14:27:35.837Z,11.53
2018-06-05T14:30:05.358Z,12.70
2018-06-05T14:32:34.507Z,15.60
2018-06-05T14:35:03.653Z,11.50
2018-06-05T14:37:32.870Z,9.23
2018-06-05T14:40:02.050Z,13.50
2018-06-05T14:42:31.174Z,11.93
2018-06-05T14:45:00.434Z,12.17
2018-06-05T14:47:29.585Z,17.03
2018-06-05T14:49:58.723Z,12.07
2018-06-05T14:52:27.897Z,13.03
2018-06-05T14:54:57.102Z,12.80
2018-06-05T14:57:26.431Z,16.43
2018-06-05T14:59:55.619Z,16.73
2018-06-05T15:02:24.756Z,10.40
2018-06-05T15:04:54.076Z,11.30
2018-06-05T15:07:23.426Z,10.00
2018-06-05T15:09:52.588Z,10.43
2018-06-05T15:12:21.777Z,10.20
2018-06-05T15:14:50.986Z,9.07
2018-06-05T15:17:20.163Z,11.20
2018-06-05T15:19:49.296Z,9.33
2018-06-05T15:22:18.814Z,12.88
2018-06-05T15:24:47.977Z,14.63
2018-06-05T15:27:17.260Z,9.83
2018-06-05T15:29:46.403Z,8.55
2018-06-05T15:32:15.947Z,8.50
2018-06-05T15:34:45.126Z,14.20
2018-06-05T15:37:14.310Z,15.30
2018-06-05T15:39:43.499Z,12.60
2018-06-05T15:42:12.850Z,13.00
2018-06-05T15:44:42.016Z,14.47
2018-06-05T15:47:11.194Z,14.40
2018-06-05T15:49:40.451Z,13.47
2018-06-05T15:52:09.617Z,15.67
2018-06-05T15:54:38.813Z,14.33
2018-06-05T15:57:08.042Z,13.50
2018-06-05T15:59:37.242Z,13.73
2018-06-05T16:02:06.408Z,13.43
2018-06-05T16:04:35.653Z,11.70
2018-06-05T16:07:05.818Z,10.97
2018-06-05T16:09:35.487Z,13.97
2018-06-05T16:12:04.699Z,13.83
2018-06-05T16:14:33.835Z,13.03
2018-06-05T16:17:02.952Z,11.70
2018-06-05T16:19:32.112Z,13.10
2018-06-05T16:22:01.242Z,12.23
2018-06-05T16:24:30.441Z,11.47
2018-06-05T16:27:01.159Z,11.30
2018-06-05T16:29:30.271Z,17.50
2018-06-05T16:31:59.534Z,15.40
2018-06-05T16:34:29.266Z,11.80
2018-06-05T16:36:58.511Z,11.63
2018-06-05T16:39:27.774Z,14.67
2018-06-05T16:41:56.961Z,12.83
2018-06-05T16:44:26.072Z,12.50
2018-06-05T16:46:55.281Z,14.63
2018-06-05T16:49:24.364Z,13.00
2018-06-05T16:51:53.505Z,13.70
2018-06-05T16:54:22.706Z,13.57
2018-06-05T16:56:51.878Z,11.13
2018-06-05T16:59:21.157Z,12.27
2018-06-05T17:01:50.421Z,19.67
2018-06-05T17:04:19.667Z,15.53
2018-06-05T17:06:55.378Z,15.63
2018-06-05T17:09:24.534Z,15.70
2018-06-05T17:11:53.965Z,15.20
2018-06-05T17:14:23.145Z,12.83
2018-06-05T17:16:52.706Z,15.27
2018-06-05T17:19:21.828Z,17.00
2018-06-05T17:21:51.029Z,12.93
2018-06-05T17:24:20.210Z,19.73
2018-06-05T17:26:49.472Z,12.93
2018-06-05T17:29:18.715Z,13.80
2018-06-05T17:31:47.893Z,15.47
2018-06-05T17:34:17.084Z,17.83
2018-06-05T17:36:46.268Z,14.50
2018-06-05T17:39:15.493Z,16.87
2018-06-05T17:41:44.783Z,15.13
2018-06-05T17:44:14.604Z,15.77
2018-06-05T17:46:43.806Z,13.67
2018-06-05T17:49:13.009Z,15.17
2018-06-05T17:51:43.273Z,15.63
2018-06-05T17:54:12.425Z,17.50
2018-06-05T17:56:41.619Z,20.60
2018-06-05T17:59:10.767Z,26.03
2018-06-05T18:01:40.060Z,17.80
2018-06-05T18:04:09.235Z,17.53
2018-06-05T18:06:38.438Z,19.33
2018-06-05T18:09:08.587Z,14.00
2018-06-05T18:11:40.738Z,11.70
2018-06-05T18:14:09.902Z,15.80
2018-06-05T18:16:39.078Z,14.47
2018-06-05T18:19:08.268Z,12.30
2018-06-05T18:21:37.451Z,11.40
2018-06-05T18:24:06.608Z,16.67
2018-06-05T18:26:35.792Z,17.10
2018-06-05T18:29:05.005Z,12.20
2018-06-05T18:31:34.245Z,10.53
2018-06-05T18:34:03.368Z,11.90
2018-06-05T18:36:32.589Z,11.37
2018-06-05T18:39:01.810Z,11.70
2018-06-05T18:41:30.982Z,12.57
2018-06-05T18:44:00.215Z,14.47
2018-06-05T18:46:29.411Z,9.33
2018-06-05T18:48:58.540Z,12.43
2018-06-05T18:51:27.739Z,13.40
2018-06-05T18:53:56.916Z,11.20
2018-06-05T18:56:26.098Z,12.43
2018-06-05T18:58:55.273Z,11.93
2018-06-05T19:01:24.585Z,16.07
2018-06-05T19:03:53.852Z,11.60
2018-06-05T19:06:23.099Z,11.60
2018-06-05T19:08:52.357Z,12.90
2018-06-05T19:11:21.755Z,11.00
2018-06-05T19:13:50.944Z,16.10
2018-06-05T19:16:20.071Z,9.07
2018-06-05T19:18:49.289Z,11.93
2018-06-05T19:21:18.482Z,18.17
2018-06-05T19:23:47.718Z,10.80
2018-06-05T19:26:16.883Z,12.10
2018-06-05T19:28:46.066Z,11.70
2018-06-05T19:31:15.276Z,12.00
2018-06-05T19:33:44.482Z,12.70
2018-06-05T19:36:13.678Z,9.27
2018-06-05T19:38:43.297Z,9.50
2018-06-05T19:41:12.514Z,15.20
2018-06-05T19:43:41.746Z,14.57
2018-06-05T19:46:10.985Z,10.90
2018-06-05T19:48:40.334Z,16.90
2018-06-05T19:51:09.576Z,17.07
2018-06-05T19:53:38.779Z,16.23
2018-06-05T19:56:08.236Z,14.53
2018-06-05T19:58:37.437Z,11.63
2018-06-05T20:01:06.699Z,13.57
2018-06-05T20:03:35.866Z,11.57
2018-06-05T20:06:05.069Z,15.33
2018-06-05T20:08:34.319Z,10.17
2018-06-05T20:11:03.596Z,15.40
2018-06-05T20:13:33.314Z,15.80
2018-06-05T20:16:02.575Z,12.23
2018-06-05T20:18:32.150Z,10.93
2018-06-05T20:21:01.431Z,12.00
2018-06-05T20:23:30.670Z,11.87
2018-06-05T20:25:59.977Z,8.90
2018-06-05T20:28:29.204Z,18.00
2018-06-05T20:30:58.479Z,12.63
2018-06-05T20:33:27.688Z,12.10
2018-06-05T20:35:56.964Z,11.33
2018-06-05T20:38:26.251Z,15.27
2018-06-05T20:40:55.565Z,14.13
2018-06-05T20:43:26.936Z,11.80
2018-06-05T20:45:56.487Z,11.90
2018-06-05T20:48:25.780Z,12.73
2018-06-05T20:50:54.968Z,11.67
2018-06-05T20:53:25.173Z,10.20
2018-06-05T20:55:54.587Z,11.00
2018-06-05T20:58:24.595Z,13.73
2018-06-05T21:00:53.769Z,11.57
2018-06-05T21:03:22.988Z,14.10
2018-06-05T21:05:52.429Z,9.37
2018-06-05T21:08:21.869Z,13.57
2018-06-05T21:10:51.059Z,9.00
2018-06-05T21:13:20.489Z,9.50
2018-06-05T21:15:49.845Z,15.87
2018-06-05T21:18:19.074Z,11.80
2018-06-05T21:20:48.405Z,11.70
2018-06-05T21:23:17.557Z,9.87
2018-06-05T21:25:46.892Z,13.60
2018-06-05T21:28:16.105Z,10.43
2018-06-05T21:30:45.282Z,11.87
2018-06-05T21:33:14.502Z,10.67
2018-06-05T21:35:43.678Z,13.70
2018-06-05T21:38:12.915Z,11.97
2018-06-05T21:40:42.115Z,11.60
2018-06-05T21:43:11.274Z,10.80
2018-06-05T21:45:40.473Z,13.73
2018-06-05T21:48:09.670Z,9.30
2018-06-05T21:50:38.876Z,8.70
2018-06-05T21:53:08.164Z,10.30
2018-06-05T21:55:37.409Z,9.80
2018-06-05T21:58:06.544Z,11.50
2018-06-05T22:00:35.755Z,9.30
2018-06-05T22:03:04.961Z,9.70
2018-06-05T22:05:34.232Z,10.27
2018-06-05T22:08:03.425Z,12.67
2018-06-05T22:10:32.564Z,12.27
2018-06-05T22:13:01.776Z,9.50
2018-06-05T22:15:30.941Z,11.60
2018-06-05T22:18:00.106Z,10.90
2018-06-05T22:20:29.340Z,14.47
2018-06-05T22:22:58.555Z,11.40
2018-06-05T22:25:27.709Z,11.93
2018-06-05T22:27:56.902Z,19.47
2018-06-05T22:30:26.045Z,17.17
2018-06-05T22:32:55.252Z,13.00
2018-06-05T22:35:24.535Z,10.77
2018-06-05T22:37:53.741Z,14.23
2018-06-05T22:40:22.960Z,14.00
2018-06-05T22:42:52.169Z,11.47
2018-06-05T22:45:21.413Z,20.03
2018-06-05T22:47:50.557Z,9.30
2018-06-05T22:50:19.733Z,9.50
2018-06-05T22:52:49.543Z,10.50
2018-06-05T22:55:18.742Z,11.87
2018-06-05T22:57:47.889Z,9.73
2018-06-05T23:00:32.078Z,9.70
2018-06-05T23:03:01.344Z,11.20
2018-06-05T23:05:30.484Z,9.53
2018-06-05T23:07:59.732Z,8.57
2018-06-05T23:10:28.975Z,12.43
2018-06-05T23:12:58.170Z,9.50
2018-06-05T23:15:27.400Z,10.90
2018-06-05T23:17:56.617Z,10.20
2018-06-05T23:20:26.170Z,9.30
2018-06-05T23:22:55.341Z,11.40
2018-06-05T23:25:25.708Z,10.33
2018-06-05T23:27:54.908Z,9.03
2018-06-05T23:30:24.060Z,18.53
2018-06-05T23:32:53.281Z,11.37
2018-06-05T23:35:22.500Z,9.80
2018-06-05T23:37:51.937Z,10.77
2018-06-05T23:40:21.165Z,12.33
2018-06-05T23:42:50.371Z,11.63
2018-06-05T23:45:19.537Z,15.60
2018-06-05T23:47:48.738Z,13.43
2018-06-05T23:50:17.929Z,18.50
2018-06-05T23:52:47.192Z,10.20
2018-06-05T23:55:16.358Z,10.80
2018-06-05T23:57:45.550Z,12.17
